sensor_id;sensor_type;location;lat;lon;timestamp;pressure;altitude;pressure_sealevel;temperature;humidity
71764;BME280;59602;52.142;5.408;2022-12-24T00:01:36;100689.97;;;9.73;92.70
71764;BME280;59602;52.142;5.408;2022-12-24T00:04:03;100671.38;;;9.75;92.84
71764;BME280;59602;52.142;5.408;2022-12-24T00:06:30;100683.81;;;9.76;92.83
71764;BME280;59602;52.142;5.408;2022-12-24T00:08:57;100686.53;;;9.76;92.65
71764;BME280;59602;52.142;5.408;2022-12-24T00:11:23;100677.22;;;9.77;92.58
71764;BME280;59602;52.142;5.408;2022-12-24T00:13:50;100680.69;;;9.77;92.96
71764;BME280;59602;52.142;5.408;2022-12-24T00:16:17;100684.59;;;9.76;92.88
71764;BME280;59602;52.142;5.408;2022-12-24T00:18:43;100694.66;;;9.76;92.93
71764;BME280;59602;52.142;5.408;2022-12-24T00:21:13;100694.66;;;9.76;92.60
71764;BME280;59602;52.142;5.408;2022-12-24T00:23:41;100692.72;;;9.76;92.80
71764;BME280;59602;52.142;5.408;2022-12-24T00:26:07;100691.97;;;9.76;92.53
71764;BME280;59602;52.142;5.408;2022-12-24T00:28:34;100702.41;;;9.74;92.95
71764;BME280;59602;52.142;5.408;2022-12-24T00:31:07;100709.78;;;9.73;92.97
71764;BME280;59602;52.142;5.408;2022-12-24T00:33:33;100709.38;;;9.71;93.02
71764;BME280;59602;52.142;5.408;2022-12-24T00:36:00;100710.53;;;9.70;92.79
71764;BME280;59602;52.142;5.408;2022-12-24T00:38:26;100721.75;;;9.69;92.79
71764;BME280;59602;52.142;5.408;2022-12-24T00:40:58;100719.44;;;9.71;92.49
71764;BME280;59602;52.142;5.408;2022-12-24T00:43:26;100722.53;;;9.69;92.57
71764;BME280;59602;52.142;5.408;2022-12-24T00:45:53;100741.91;;;9.68;92.21
71764;BME280;59602;52.142;5.408;2022-12-24T00:48:20;100743.09;;;9.70;92.01
71764;BME280;59602;52.142;5.408;2022-12-24T00:50:49;100748.50;;;9.67;92.13
71764;BME280;59602;52.142;5.408;2022-12-24T00:53:16;100736.84;;;9.66;92.13
71764;BME280;59602;52.142;5.408;2022-12-24T00:55:43;100748.47;;;9.63;92.50
71764;BME280;59602;52.142;5.408;2022-12-24T00:58:09;100748.06;;;9.61;92.45
71764;BME280;59602;52.142;5.408;2022-12-24T01:00:36;100756.56;;;9.60;92.50
71764;BME280;59602;52.142;5.408;2022-12-24T01:03:02;100761.22;;;9.59;92.55
71764;BME280;59602;52.142;5.408;2022-12-24T01:05:29;100769.38;;;9.59;92.63
71764;BME280;59602;52.142;5.408;2022-12-24T01:07:56;100772.88;;;9.60;92.22
71764;BME280;59602;52.142;5.408;2022-12-24T01:10:22;100779.09;;;9.60;92.04
71764;BME280;59602;52.142;5.408;2022-12-24T01:12:49;100781.41;;;9.58;92.03
71764;BME280;59602;52.142;5.408;2022-12-24T01:15:15;100790.69;;;9.57;92.41
71764;BME280;59602;52.142;5.408;2022-12-24T01:17:42;100798.81;;;9.57;91.93
71764;BME280;59602;52.142;5.408;2022-12-24T01:20:13;100800.34;;;9.54;92.01
71764;BME280;59602;52.142;5.408;2022-12-24T01:22:39;100809.63;;;9.50;92.25
71764;BME280;59602;52.142;5.408;2022-12-24T01:25:06;100803.38;;;9.46;92.12
71764;BME280;59602;52.142;5.408;2022-12-24T01:27:33;100812.25;;;9.43;92.18
71764;BME280;59602;52.142;5.408;2022-12-24T01:30:00;100819.56;;;9.39;92.41
71764;BME280;59602;52.142;5.408;2022-12-24T01:32:26;100820.72;;;9.38;92.56
71764;BME280;59602;52.142;5.408;2022-12-24T01:34:53;100818.41;;;9.36;92.72
71764;BME280;59602;52.142;5.408;2022-12-24T01:37:19;100819.91;;;9.33;93.00
71764;BME280;59602;52.142;5.408;2022-12-24T01:39:46;100819.81;;;9.26;92.78
71764;BME280;59602;52.142;5.408;2022-12-24T01:42:18;100819.03;;;9.22;92.83
71764;BME280;59602;52.142;5.408;2022-12-24T01:45:34;100821.69;;;9.19;93.05
71764;BME280;59602;52.142;5.408;2022-12-24T01:48:13;100816.19;;;9.11;92.78
71764;BME280;59602;52.142;5.408;2022-12-24T01:50:41;100828.91;;;9.07;92.86
71764;BME280;59602;52.142;5.408;2022-12-24T01:53:09;100834.66;;;9.02;92.95
71764;BME280;59602;52.142;5.408;2022-12-24T01:55:37;100831.13;;;8.98;93.10
71764;BME280;59602;52.142;5.408;2022-12-24T01:58:05;100838.44;;;8.94;93.19
71764;BME280;59602;52.142;5.408;2022-12-24T02:00:33;100839.94;;;8.91;93.32
71764;BME280;59602;52.142;5.408;2022-12-24T02:02:59;100851.50;;;8.88;93.33
71764;BME280;59602;52.142;5.408;2022-12-24T02:05:34;100858.47;;;8.86;93.68
71764;BME280;59602;52.142;5.408;2022-12-24T02:08:03;100857.25;;;8.83;93.44
71764;BME280;59602;52.142;5.408;2022-12-24T02:10:30;100857.25;;;8.80;93.46
71764;BME280;59602;52.142;5.408;2022-12-24T02:12:58;100854.09;;;8.78;93.38
71764;BME280;59602;52.142;5.408;2022-12-24T02:15:28;100864.13;;;8.73;93.88
71764;BME280;59602;52.142;5.408;2022-12-24T02:18:11;100867.19;;;8.72;93.56
71764;BME280;59602;52.142;5.408;2022-12-24T02:23:37;100873.63;;;8.64;93.94
71764;BME280;59602;52.142;5.408;2022-12-24T02:32:01;100885.16;;;8.57;94.05
71764;BME280;59602;52.142;5.408;2022-12-24T02:34:36;100893.66;;;8.56;93.95
71764;BME280;59602;52.142;5.408;2022-12-24T02:37:15;100882.72;;;8.48;93.89
71764;BME280;59602;52.142;5.408;2022-12-24T02:39:48;100896.56;;;8.43;93.86
71764;BME280;59602;52.142;5.408;2022-12-24T02:42:24;100900.34;;;8.39;93.91
71764;BME280;59602;52.142;5.408;2022-12-24T02:44:55;100897.97;;;8.37;94.03
71764;BME280;59602;52.142;5.408;2022-12-24T02:47:26;100892.94;;;8.36;94.05
71764;BME280;59602;52.142;5.408;2022-12-24T02:49:53;100895.56;;;8.32;94.31
71764;BME280;59602;52.142;5.408;2022-12-24T02:55:07;100899.38;;;8.27;94.56
71764;BME280;59602;52.142;5.408;2022-12-24T02:57:43;100908.25;;;8.24;94.44
71764;BME280;59602;52.142;5.408;2022-12-24T03:00:17;100911.66;;;8.21;94.59
71764;BME280;59602;52.142;5.408;2022-12-24T03:02:55;100915.50;;;8.20;94.73
71764;BME280;59602;52.142;5.408;2022-12-24T03:08:05;100922.13;;;8.23;94.66
71764;BME280;59602;52.142;5.408;2022-12-24T03:10:51;100920.94;;;8.20;94.75
71764;BME280;59602;52.142;5.408;2022-12-24T03:13:20;100923.22;;;8.18;94.88
71764;BME280;59602;52.142;5.408;2022-12-24T03:15:49;100916.59;;;8.16;94.47
71764;BME280;59602;52.142;5.408;2022-12-24T03:18:20;100922.66;;;8.09;94.65
71764;BME280;59602;52.142;5.408;2022-12-24T03:20:55;100915.56;;;8.01;94.49
71764;BME280;59602;52.142;5.408;2022-12-24T03:23:23;100910.88;;;7.98;94.83
71764;BME280;59602;52.142;5.408;2022-12-24T03:25:50;100917.06;;;7.98;94.76
71764;BME280;59602;52.142;5.408;2022-12-24T03:28:17;100920.53;;;7.99;94.89
71764;BME280;59602;52.142;5.408;2022-12-24T03:30:46;100929.03;;;7.97;94.72
71764;BME280;59602;52.142;5.408;2022-12-24T03:33:15;100933.22;;;7.95;94.91
71764;BME280;59602;52.142;5.408;2022-12-24T03:35:42;100936.31;;;7.93;95.25
71764;BME280;59602;52.142;5.408;2022-12-24T03:38:08;100934.38;;;7.94;95.13
71764;BME280;59602;52.142;5.408;2022-12-24T03:40:35;100933.66;;;7.97;95.20
71764;BME280;59602;52.142;5.408;2022-12-24T03:43:02;100932.88;;;7.96;95.59
71764;BME280;59602;52.142;5.408;2022-12-24T03:45:28;100937.16;;;7.97;95.83
71764;BME280;59602;52.142;5.408;2022-12-24T03:47:55;100935.28;;;8.01;95.76
71764;BME280;59602;52.142;5.408;2022-12-24T03:50:22;100938.06;;;8.05;96.22
71764;BME280;59602;52.142;5.408;2022-12-24T03:52:48;100942.31;;;8.06;95.93
71764;BME280;59602;52.142;5.408;2022-12-24T03:55:15;100941.97;;;8.07;96.43
71764;BME280;59602;52.142;5.408;2022-12-24T03:57:41;100940.03;;;8.08;96.48
71764;BME280;59602;52.142;5.408;2022-12-24T04:00:08;100946.31;;;8.12;96.67
71764;BME280;59602;52.142;5.408;2022-12-24T04:02:35;100945.63;;;8.15;97.26
71764;BME280;59602;52.142;5.408;2022-12-24T04:05:02;100941.75;;;8.16;97.25
71764;BME280;59602;52.142;5.408;2022-12-24T04:07:29;100961.22;;;8.22;97.56
71764;BME280;59602;52.142;5.408;2022-12-24T04:09:57;100960.06;;;8.23;97.56
71764;BME280;59602;52.142;5.408;2022-12-24T04:12:23;100959.31;;;8.26;98.08
71764;BME280;59602;52.142;5.408;2022-12-24T04:14:50;100951.63;;;8.28;98.15
71764;BME280;59602;52.142;5.408;2022-12-24T04:17:16;100959.47;;;8.33;98.16
71764;BME280;59602;52.142;5.408;2022-12-24T04:19:43;100953.31;;;8.36;98.06
71764;BME280;59602;52.142;5.408;2022-12-24T04:22:10;100952.59;;;8.39;98.80
71764;BME280;59602;52.142;5.408;2022-12-24T04:24:37;100957.31;;;8.42;98.46
71764;BME280;59602;52.142;5.408;2022-12-24T04:27:03;100958.53;;;8.45;98.79
71764;BME280;59602;52.142;5.408;2022-12-24T04:29:30;100971.72;;;8.46;98.56
71764;BME280;59602;52.142;5.408;2022-12-24T04:31:57;100965.50;;;8.46;98.76
71764;BME280;59602;52.142;5.408;2022-12-24T04:34:23;100964.00;;;8.48;98.95
71764;BME280;59602;52.142;5.408;2022-12-24T04:36:50;100962.13;;;8.52;98.91
71764;BME280;59602;52.142;5.408;2022-12-24T04:39:16;100963.72;;;8.54;98.90
71764;BME280;59602;52.142;5.408;2022-12-24T04:41:43;100977.69;;;8.56;99.04
71764;BME280;59602;52.142;5.408;2022-12-24T04:44:09;100979.22;;;8.57;99.10
71764;BME280;59602;52.142;5.408;2022-12-24T04:46:36;100985.84;;;8.59;99.45
71764;BME280;59602;52.142;5.408;2022-12-24T04:49:03;100979.31;;;8.60;99.53
71764;BME280;59602;52.142;5.408;2022-12-24T04:51:29;100982.44;;;8.62;99.48
71764;BME280;59602;52.142;5.408;2022-12-24T04:53:56;100972.72;;;8.61;99.34
71764;BME280;59602;52.142;5.408;2022-12-24T04:56:25;100974.66;;;8.61;99.39
71764;BME280;59602;52.142;5.408;2022-12-24T04:58:52;100979.31;;;8.60;99.51
71764;BME280;59602;52.142;5.408;2022-12-24T05:01:21;100983.13;;;8.59;99.62
71764;BME280;59602;52.142;5.408;2022-12-24T05:03:49;100982.38;;;8.59;99.33
71764;BME280;59602;52.142;5.408;2022-12-24T05:06:18;100993.28;;;8.62;99.42
71764;BME280;59602;52.142;5.408;2022-12-24T05:08:45;100994.06;;;8.63;99.48
71764;BME280;59602;52.142;5.408;2022-12-24T05:11:12;100985.56;;;8.64;99.80
71764;BME280;59602;52.142;5.408;2022-12-24T05:13:42;100991.41;;;8.66;99.54
71764;BME280;59602;52.142;5.408;2022-12-24T05:16:15;100980.19;;;8.68;99.54
71764;BME280;59602;52.142;5.408;2022-12-24T05:18:42;100977.91;;;8.70;99.62
71764;BME280;59602;52.142;5.408;2022-12-24T05:21:10;100988.38;;;8.71;99.64
71764;BME280;59602;52.142;5.408;2022-12-24T05:23:37;100982.19;;;8.71;99.75
71764;BME280;59602;52.142;5.408;2022-12-24T05:26:29;100990.31;;;8.71;99.50
71764;BME280;59602;52.142;5.408;2022-12-24T05:28:58;100994.16;;;8.70;100.00
71764;BME280;59602;52.142;5.408;2022-12-24T05:31:27;100991.47;;;8.70;99.81
71764;BME280;59602;52.142;5.408;2022-12-24T05:33:54;101001.16;;;8.71;99.94
71764;BME280;59602;52.142;5.408;2022-12-24T05:36:22;100998.06;;;8.72;100.00
71764;BME280;59602;52.142;5.408;2022-12-24T05:38:49;100998.06;;;8.72;100.00
71764;BME280;59602;52.142;5.408;2022-12-24T05:41:16;101014.00;;;8.74;100.00
71764;BME280;59602;52.142;5.408;2022-12-24T05:43:42;101014.75;;;8.75;100.00
71764;BME280;59602;52.142;5.408;2022-12-24T05:46:12;101006.28;;;8.76;100.00
71764;BME280;59602;52.142;5.408;2022-12-24T05:48:39;100997.78;;;8.78;100.00
71764;BME280;59602;52.142;5.408;2022-12-24T05:51:07;101005.94;;;8.78;100.00
71764;BME280;59602;52.142;5.408;2022-12-24T05:53:34;101004.41;;;8.80;100.00
71764;BME280;59602;52.142;5.408;2022-12-24T05:56:04;101009.84;;;8.80;100.00
71764;BME280;59602;52.142;5.408;2022-12-24T05:58:31;101000.19;;;8.83;100.00
71764;BME280;59602;52.142;5.408;2022-12-24T06:01:00;101003.69;;;8.83;100.00
71764;BME280;59602;52.142;5.408;2022-12-24T06:03:28;101012.22;;;8.85;100.00
71764;BME280;59602;52.142;5.408;2022-12-24T06:05:58;101016.13;;;8.88;100.00
71764;BME280;59602;52.142;5.408;2022-12-24T06:08:25;101027.38;;;8.86;100.00
71764;BME280;59602;52.142;5.408;2022-12-24T06:10:55;101011.50;;;8.88;100.00
71764;BME280;59602;52.142;5.408;2022-12-24T06:13:22;101012.28;;;8.89;100.00
71764;BME280;59602;52.142;5.408;2022-12-24T06:15:50;101014.63;;;8.90;100.00
71764;BME280;59602;52.142;5.408;2022-12-24T06:18:16;101025.84;;;8.89;100.00
71764;BME280;59602;52.142;5.408;2022-12-24T06:20:43;101023.50;;;8.87;100.00
71764;BME280;59602;52.142;5.408;2022-12-24T06:23:10;101031.28;;;8.89;100.00
71764;BME280;59602;52.142;5.408;2022-12-24T06:25:36;101035.53;;;8.90;100.00
71764;BME280;59602;52.142;5.408;2022-12-24T06:28:03;101033.59;;;8.90;100.00
71764;BME280;59602;52.142;5.408;2022-12-24T06:30:30;101034.41;;;8.91;100.00
71764;BME280;59602;52.142;5.408;2022-12-24T06:32:56;101035.97;;;8.92;100.00
71764;BME280;59602;52.142;5.408;2022-12-24T06:35:23;101045.31;;;8.94;100.00
71764;BME280;59602;52.142;5.408;2022-12-24T06:37:51;101048.78;;;8.95;100.00
71764;BME280;59602;52.142;5.408;2022-12-24T06:40:18;101046.47;;;8.93;100.00
71764;BME280;59602;52.142;5.408;2022-12-24T06:42:45;101045.69;;;8.93;100.00
71764;BME280;59602;52.142;5.408;2022-12-24T06:45:12;101048.44;;;8.97;100.00
71764;BME280;59602;52.142;5.408;2022-12-24T06:47:58;101054.22;;;8.95;100.00
71764;BME280;59602;52.142;5.408;2022-12-24T06:50:27;101051.16;;;8.97;100.00
71764;BME280;59602;52.142;5.408;2022-12-24T06:52:53;101058.16;;;8.98;100.00
71764;BME280;59602;52.142;5.408;2022-12-24T06:55:20;101065.13;;;8.99;100.00
71764;BME280;59602;52.142;5.408;2022-12-24T06:57:47;101064.78;;;9.00;100.00
71764;BME280;59602;52.142;5.408;2022-12-24T07:00:14;101053.94;;;9.00;100.00
71764;BME280;59602;52.142;5.408;2022-12-24T07:02:42;101054.34;;;9.02;100.00
71764;BME280;59602;52.142;5.408;2022-12-24T07:05:10;101060.19;;;9.04;100.00
71764;BME280;59602;52.142;5.408;2022-12-24T07:07:40;101059.38;;;9.04;100.00
71764;BME280;59602;52.142;5.408;2022-12-24T07:10:36;101068.34;;;9.04;100.00
71764;BME280;59602;52.142;5.408;2022-12-24T07:13:17;101064.47;;;9.05;100.00
71764;BME280;59602;52.142;5.408;2022-12-24T07:19:24;101071.44;;;9.06;100.00
71764;BME280;59602;52.142;5.408;2022-12-24T07:23:15;101076.09;;;9.06;100.00
71764;BME280;59602;52.142;5.408;2022-12-24T07:28:44;101086.09;;;9.02;100.00
71764;BME280;59602;52.142;5.408;2022-12-24T07:31:16;101089.97;;;9.01;100.00
71764;BME280;59602;52.142;5.408;2022-12-24T07:33:58;101101.94;;;9.00;100.00
71764;BME280;59602;52.142;5.408;2022-12-24T07:36:25;101110.88;;;9.00;100.00
71764;BME280;59602;52.142;5.408;2022-12-24T07:38:56;101109.31;;;8.99;100.00
71764;BME280;59602;52.142;5.408;2022-12-24T07:41:25;101121.72;;;9.00;100.00
71764;BME280;59602;52.142;5.408;2022-12-24T07:44:15;101139.22;;;9.03;100.00
71764;BME280;59602;52.142;5.408;2022-12-24T07:46:42;101141.56;;;9.04;100.00
71764;BME280;59602;52.142;5.408;2022-12-24T07:49:10;101136.53;;;9.06;100.00
71764;BME280;59602;52.142;5.408;2022-12-24T07:51:37;101142.34;;;9.05;100.00
71764;BME280;59602;52.142;5.408;2022-12-24T07:54:03;101147.75;;;9.05;100.00
71764;BME280;59602;52.142;5.408;2022-12-24T07:56:31;101149.69;;;9.04;100.00
71764;BME280;59602;52.142;5.408;2022-12-24T07:58:58;101171.03;;;9.06;100.00
71764;BME280;59602;52.142;5.408;2022-12-24T08:01:24;101175.66;;;9.05;100.00
71764;BME280;59602;52.142;5.408;2022-12-24T08:03:51;101178.38;;;9.05;100.00
71764;BME280;59602;52.142;5.408;2022-12-24T08:06:21;101178.38;;;9.05;100.00
71764;BME280;59602;52.142;5.408;2022-12-24T08:08:48;101176.44;;;9.06;100.00
71764;BME280;59602;52.142;5.408;2022-12-24T08:11:15;101179.16;;;9.06;99.92
71764;BME280;59602;52.142;5.408;2022-12-24T08:13:42;101186.16;;;9.07;100.00
71764;BME280;59602;52.142;5.408;2022-12-24T08:16:10;101188.88;;;9.07;99.96
71764;BME280;59602;52.142;5.408;2022-12-24T08:18:36;101194.31;;;9.07;99.84
71764;BME280;59602;52.142;5.408;2022-12-24T08:21:06;101198.22;;;9.09;99.83
71764;BME280;59602;52.142;5.408;2022-12-24T08:23:34;101200.50;;;9.07;99.61
71764;BME280;59602;52.142;5.408;2022-12-24T08:26:00;101205.59;;;9.09;99.30
71764;BME280;59602;52.142;5.408;2022-12-24T08:28:28;101206.72;;;9.08;99.35
71764;BME280;59602;52.142;5.408;2022-12-24T08:30:54;101199.00;;;9.10;99.54
71764;BME280;59602;52.142;5.408;2022-12-24T08:33:21;101205.19;;;9.10;99.38
71764;BME280;59602;52.142;5.408;2022-12-24T08:35:48;101207.56;;;9.12;99.06
71764;BME280;59602;52.142;5.408;2022-12-24T08:38:16;101202.22;;;9.16;99.20
71764;BME280;59602;52.142;5.408;2022-12-24T08:40:45;101206.91;;;9.19;99.33
71764;BME280;59602;52.142;5.408;2022-12-24T08:43:15;101209.69;;;9.22;99.04
71764;BME280;59602;52.142;5.408;2022-12-24T08:45:43;101221.75;;;9.25;99.35
71764;BME280;59602;52.142;5.408;2022-12-24T08:48:10;101218.66;;;9.26;99.08
71764;BME280;59602;52.142;5.408;2022-12-24T08:50:38;101231.09;;;9.27;98.98
71764;BME280;59602;52.142;5.408;2022-12-24T08:53:07;101232.66;;;9.28;99.06
71764;BME280;59602;52.142;5.408;2022-12-24T08:55:33;101238.06;;;9.28;98.85
71764;BME280;59602;52.142;5.408;2022-12-24T08:58:00;101233.47;;;9.29;98.49
71764;BME280;59602;52.142;5.408;2022-12-24T09:00:27;101242.00;;;9.31;98.71
71764;BME280;59602;52.142;5.408;2022-12-24T09:02:54;101244.00;;;9.34;98.72
71764;BME280;59602;52.142;5.408;2022-12-24T09:05:22;101258.69;;;9.33;98.88
71764;BME280;59602;52.142;5.408;2022-12-24T09:07:48;101262.28;;;9.37;98.86
71764;BME280;59602;52.142;5.408;2022-12-24T09:10:15;101254.97;;;9.41;98.61
71764;BME280;59602;52.142;5.408;2022-12-24T09:12:42;101264.72;;;9.42;98.47
71764;BME280;59602;52.142;5.408;2022-12-24T09:15:10;101258.13;;;9.43;98.64
71764;BME280;59602;52.142;5.408;2022-12-24T09:17:36;101265.47;;;9.43;98.73
71764;BME280;59602;52.142;5.408;2022-12-24T09:20:04;101276.34;;;9.43;98.64
71764;BME280;59602;52.142;5.408;2022-12-24T09:22:35;101269.75;;;9.44;98.46
71764;BME280;59602;52.142;5.408;2022-12-24T09:25:02;101281.81;;;9.46;98.77
71764;BME280;59602;52.142;5.408;2022-12-24T09:27:30;101280.69;;;9.47;98.63
71764;BME280;59602;52.142;5.408;2022-12-24T09:29:57;101289.59;;;9.48;98.52
71764;BME280;59602;52.142;5.408;2022-12-24T09:32:23;101298.19;;;9.50;98.74
71764;BME280;59602;52.142;5.408;2022-12-24T09:34:50;101295.88;;;9.52;98.49
71764;BME280;59602;52.142;5.408;2022-12-24T09:37:16;101294.38;;;9.54;98.71
71764;BME280;59602;52.142;5.408;2022-12-24T09:39:43;101303.72;;;9.57;98.29
71764;BME280;59602;52.142;5.408;2022-12-24T09:42:22;101313.50;;;9.62;97.94
71764;BME280;59602;52.142;5.408;2022-12-24T09:45:04;101325.56;;;9.64;98.05
71764;BME280;59602;52.142;5.408;2022-12-24T09:47:38;101322.84;;;9.64;97.71
71764;BME280;59602;52.142;5.408;2022-12-24T09:50:31;101338.38;;;9.64;97.62
71764;BME280;59602;52.142;5.408;2022-12-24T09:53:05;101331.00;;;9.64;97.54
71764;BME280;59602;52.142;5.408;2022-12-24T09:55:48;101324.78;;;9.64;97.58
71764;BME280;59602;52.142;5.408;2022-12-24T09:58:24;101323.59;;;9.61;97.42
71764;BME280;59602;52.142;5.408;2022-12-24T10:00:55;101335.22;;;9.62;97.46
71764;BME280;59602;52.142;5.408;2022-12-24T10:03:22;101326.72;;;9.63;97.19
71764;BME280;59602;52.142;5.408;2022-12-24T10:05:57;101334.53;;;9.65;97.21
71764;BME280;59602;52.142;5.408;2022-12-24T10:11:13;101332.22;;;9.67;97.25
71764;BME280;59602;52.142;5.408;2022-12-24T10:19:24;101329.63;;;9.74;96.89
71764;BME280;59602;52.142;5.408;2022-12-24T10:22:13;101342.47;;;9.77;96.63
71764;BME280;59602;52.142;5.408;2022-12-24T10:25:02;101340.53;;;9.77;96.28
71764;BME280;59602;52.142;5.408;2022-12-24T10:27:35;101334.41;;;9.81;96.65
71764;BME280;59602;52.142;5.408;2022-12-24T10:30:13;101339.88;;;9.84;96.33
71764;BME280;59602;52.142;5.408;2022-12-24T10:32:43;101316.25;;;9.85;96.62
71764;BME280;59602;52.142;5.408;2022-12-24T10:37:42;101322.91;;;9.91;95.93
71764;BME280;59602;52.142;5.408;2022-12-24T10:42:50;101335.84;;;9.97;95.77
71764;BME280;59602;52.142;5.408;2022-12-24T10:45:20;101343.28;;;10.01;95.40
71764;BME280;59602;52.142;5.408;2022-12-24T10:47:53;101339.47;;;10.05;95.57
71764;BME280;59602;52.142;5.408;2022-12-24T10:50:28;101344.59;;;10.10;95.39
71764;BME280;59602;52.142;5.408;2022-12-24T10:53:13;101335.72;;;10.13;95.18
71764;BME280;59602;52.142;5.408;2022-12-24T10:55:43;101338.41;;;10.13;95.31
71764;BME280;59602;52.142;5.408;2022-12-24T10:58:15;101336.88;;;10.12;94.82
71764;BME280;59602;52.142;5.408;2022-12-24T11:00:50;101345.03;;;10.12;94.83
71764;BME280;59602;52.142;5.408;2022-12-24T11:05:44;101350.81;;;10.11;94.79
71764;BME280;59602;52.142;5.408;2022-12-24T11:10:41;101358.59;;;10.12;94.44
71764;BME280;59602;52.142;5.408;2022-12-24T11:13:22;101349.69;;;10.12;94.04
71764;BME280;59602;52.142;5.408;2022-12-24T11:16:04;101346.19;;;10.11;94.18
71764;BME280;59602;52.142;5.408;2022-12-24T11:18:35;101354.34;;;10.11;94.42
71764;BME280;59602;52.142;5.408;2022-12-24T11:21:03;101340.31;;;10.09;94.00
71764;BME280;59602;52.142;5.408;2022-12-24T11:23:33;101349.25;;;10.10;94.17
71764;BME280;59602;52.142;5.408;2022-12-24T11:25:59;101346.19;;;10.11;94.08
71764;BME280;59602;52.142;5.408;2022-12-24T11:28:29;101347.38;;;10.14;94.23
71764;BME280;59602;52.142;5.408;2022-12-24T11:31:00;101348.94;;;10.15;94.11
71764;BME280;59602;52.142;5.408;2022-12-24T11:33:29;101357.44;;;10.13;94.00
71764;BME280;59602;52.142;5.408;2022-12-24T11:36:00;101358.19;;;10.10;93.71
71764;BME280;59602;52.142;5.408;2022-12-24T11:38:29;101368.63;;;10.08;93.38
71764;BME280;59602;52.142;5.408;2022-12-24T11:41:00;101358.91;;;10.07;93.82
71764;BME280;59602;52.142;5.408;2022-12-24T11:43:35;101362.75;;;10.06;93.43
71764;BME280;59602;52.142;5.408;2022-12-24T11:46:12;101357.34;;;10.06;93.29
71764;BME280;59602;52.142;5.408;2022-12-24T11:48:40;101368.59;;;10.05;92.85
71764;BME280;59602;52.142;5.408;2022-12-24T11:51:19;101364.28;;;10.04;92.71
71764;BME280;59602;52.142;5.408;2022-12-24T11:56:36;101372.78;;;10.02;91.25
71764;BME280;59602;52.142;5.408;2022-12-24T11:59:25;101373.22;;;10.04;90.78
71764;BME280;59602;52.142;5.408;2022-12-24T12:02:17;101378.63;;;10.04;90.34
71764;BME280;59602;52.142;5.408;2022-12-24T12:04:49;101380.66;;;10.07;89.86
71764;BME280;59602;52.142;5.408;2022-12-24T12:07:23;101372.53;;;10.11;90.11
71764;BME280;59602;52.142;5.408;2022-12-24T12:09:58;101371.44;;;10.15;90.23
71764;BME280;59602;52.142;5.408;2022-12-24T12:12:27;101379.69;;;10.19;90.04
71764;BME280;59602;52.142;5.408;2022-12-24T12:15:00;101384.03;;;10.24;89.81
71764;BME280;59602;52.142;5.408;2022-12-24T12:17:32;101384.78;;;10.24;89.29
71764;BME280;59602;52.142;5.408;2022-12-24T12:20:15;101387.16;;;10.26;89.17
71764;BME280;59602;52.142;5.408;2022-12-24T12:25:22;101406.97;;;10.26;87.86
71764;BME280;59602;52.142;5.408;2022-12-24T12:27:53;101410.84;;;10.25;88.19
71764;BME280;59602;52.142;5.408;2022-12-24T12:30:21;101409.63;;;10.23;88.53
71764;BME280;59602;52.142;5.408;2022-12-24T12:32:57;101418.94;;;10.22;88.14
71764;BME280;59602;52.142;5.408;2022-12-24T12:35:32;101408.78;;;10.18;87.52
71764;BME280;59602;52.142;5.408;2022-12-24T12:38:03;101408.78;;;10.18;87.42
71764;BME280;59602;52.142;5.408;2022-12-24T12:43:30;101411.94;;;10.21;87.44
71764;BME280;59602;52.142;5.408;2022-12-24T12:46:20;101412.72;;;10.21;86.81
71764;BME280;59602;52.142;5.408;2022-12-24T12:51:36;101424.44;;;10.25;86.50
71764;BME280;59602;52.142;5.408;2022-12-24T12:54:27;101418.19;;;10.25;86.36
71764;BME280;59602;52.142;5.408;2022-12-24T12:57:04;101424.00;;;10.23;86.77
71764;BME280;59602;52.142;5.408;2022-12-24T12:59:40;101431.38;;;10.23;86.95
71764;BME280;59602;52.142;5.408;2022-12-24T13:02:26;101431.38;;;10.23;86.79
71764;BME280;59602;52.142;5.408;2022-12-24T13:11:00;101437.91;;;10.18;86.45
71764;BME280;59602;52.142;5.408;2022-12-24T13:14:05;101449.13;;;10.16;86.15
71764;BME280;59602;52.142;5.408;2022-12-24T13:21:50;101434.34;;;10.14;85.86
71764;BME280;59602;52.142;5.408;2022-12-24T13:24:23;101426.97;;;10.14;86.41
71764;BME280;59602;52.142;5.408;2022-12-24T13:27:15;101432.41;;;10.14;86.74
71764;BME280;59602;52.142;5.408;2022-12-24T13:29:57;101442.09;;;10.15;86.61
71764;BME280;59602;52.142;5.408;2022-12-24T13:37:44;101460.03;;;10.20;86.65
71764;BME280;59602;52.142;5.408;2022-12-24T13:42:46;101471.53;;;10.29;86.90
71764;BME280;59602;52.142;5.408;2022-12-24T13:48:00;101478.63;;;10.37;87.03
71764;BME280;59602;52.142;5.408;2022-12-24T13:50:34;101484.50;;;10.39;86.25
71764;BME280;59602;52.142;5.408;2022-12-24T13:53:02;101471.25;;;10.38;86.44
71764;BME280;59602;52.142;5.408;2022-12-24T13:55:30;101473.56;;;10.36;86.05
71764;BME280;59602;52.142;5.408;2022-12-24T13:58:00;101480.50;;;10.33;85.84
71764;BME280;59602;52.142;5.408;2022-12-24T14:00:36;101480.88;;;10.32;86.05
71764;BME280;59602;52.142;5.408;2022-12-24T14:03:14;101486.66;;;10.30;86.51
71764;BME280;59602;52.142;5.408;2022-12-24T14:08:33;101496.22;;;10.24;86.05
71764;BME280;59602;52.142;5.408;2022-12-24T14:11:12;101502.03;;;10.23;85.74
71764;BME280;59602;52.142;5.408;2022-12-24T14:18:45;101500.53;;;10.25;85.85
71764;BME280;59602;52.142;5.408;2022-12-24T14:21:16;101509.03;;;10.24;86.05
71764;BME280;59602;52.142;5.408;2022-12-24T14:23:50;101505.53;;;10.23;86.36
71764;BME280;59602;52.142;5.408;2022-12-24T14:26:22;101508.25;;;10.23;86.46
71764;BME280;59602;52.142;5.408;2022-12-24T14:29:03;101502.03;;;10.23;86.40
71764;BME280;59602;52.142;5.408;2022-12-24T14:31:31;101505.13;;;10.21;86.76
71764;BME280;59602;52.142;5.408;2022-12-24T14:34:06;101500.81;;;10.20;87.27